sensor_id;sensor_type;location;lat;lon;timestamp;pressure;altitude;pressure_sealevel;temperature;humidity
51986;BME280;38002;53.296;6.600;2023-03-16T00:02:34;102081.22;;;2.46;73.06
51986;BME280;38002;53.296;6.600;2023-03-16T00:07:34;102082.88;;;2.48;72.34
51986;BME280;38002;53.296;6.600;2023-03-16T00:12:35;102071.97;;;2.51;72.38
51986;BME280;38002;53.296;6.600;2023-03-16T00:17:35;102068.34;;;2.52;72.62
51986;BME280;38002;53.296;6.600;2023-03-16T00:22:35;102063.75;;;2.54;72.13
51986;BME280;38002;53.296;6.600;2023-03-16T00:27:36;102059.97;;;2.58;72.94
51986;BME280;38002;53.296;6.600;2023-03-16T00:32:36;102056.31;;;2.59;72.95
51986;BME280;38002;53.296;6.600;2023-03-16T00:37:37;102051.81;;;2.60;73.22
51986;BME280;38002;53.296;6.600;2023-03-16T00:42:38;102049.06;;;2.61;72.11
51986;BME280;38002;53.296;6.600;2023-03-16T00:47:38;102047.06;;;2.65;71.94
51986;BME280;38002;53.296;6.600;2023-03-16T00:52:39;102042.50;;;2.67;72.30
51986;BME280;38002;53.296;6.600;2023-03-16T00:57:39;102038.75;;;2.69;72.43
51986;BME280;38002;53.296;6.600;2023-03-16T01:02:39;102032.28;;;2.73;72.33
51986;BME280;38002;53.296;6.600;2023-03-16T01:07:40;102035.75;;;2.76;73.08
51986;BME280;38002;53.296;6.600;2023-03-16T01:12:40;102011.47;;;2.77;72.67
51986;BME280;38002;53.296;6.600;2023-03-16T01:17:44;102002.41;;;2.80;72.67
51986;BME280;38002;53.296;6.600;2023-03-16T01:22:44;101998.69;;;2.82;72.85
51986;BME280;38002;53.296;6.600;2023-03-16T01:27:45;101986.91;;;2.85;73.08
51986;BME280;38002;53.296;6.600;2023-03-16T01:32:45;101982.31;;;2.87;72.69
51986;BME280;38002;53.296;6.600;2023-03-16T01:37:45;101985.69;;;2.90;72.57
51986;BME280;38002;53.296;6.600;2023-03-16T01:42:47;101989.16;;;2.92;72.97
51986;BME280;38002;53.296;6.600;2023-03-16T01:47:47;101972.09;;;2.93;72.70
51986;BME280;38002;53.296;6.600;2023-03-16T01:52:48;101979.19;;;2.94;73.08
51986;BME280;38002;53.296;6.600;2023-03-16T01:57:48;101965.75;;;2.94;72.32
51986;BME280;38002;53.296;6.600;2023-03-16T02:02:50;101951.31;;;2.97;72.92
51986;BME280;38002;53.296;6.600;2023-03-16T02:07:53;101961.06;;;2.98;72.64
51986;BME280;38002;53.296;6.600;2023-03-16T02:12:58;101949.38;;;2.99;73.55
51986;BME280;38002;53.296;6.600;2023-03-16T02:17:59;101946.69;;;2.99;72.89
51986;BME280;38002;53.296;6.600;2023-03-16T02:23:00;101931.50;;;2.98;73.12
51986;BME280;38002;53.296;6.600;2023-03-16T02:28:18;101937.69;;;3.00;73.18
51986;BME280;38002;53.296;6.600;2023-03-16T02:33:21;101922.44;;;3.00;74.01
51986;BME280;38002;53.296;6.600;2023-03-16T02:38:21;101919.56;;;3.03;73.89
51986;BME280;38002;53.296;6.600;2023-03-16T02:43:23;101911.44;;;3.05;74.34
51986;BME280;38002;53.296;6.600;2023-03-16T02:53:37;101903.09;;;3.09;73.50
51986;BME280;38002;53.296;6.600;2023-03-16T02:58:37;101898.41;;;3.13;74.27
51986;BME280;38002;53.296;6.600;2023-03-16T03:03:38;101904.38;;;3.18;73.88
51986;BME280;38002;53.296;6.600;2023-03-16T03:08:38;101897.88;;;3.22;73.98
51986;BME280;38002;53.296;6.600;2023-03-16T03:13:39;101880.81;;;3.23;74.22
51986;BME280;38002;53.296;6.600;2023-03-16T03:18:43;101881.66;;;3.24;73.78
51986;BME280;38002;53.296;6.600;2023-03-16T03:23:43;101860.59;;;3.16;74.63
51986;BME280;38002;53.296;6.600;2023-03-16T03:28:45;101870.06;;;3.23;74.51
51986;BME280;38002;53.296;6.600;2023-03-16T03:33:46;101851.13;;;3.25;73.59
51986;BME280;38002;53.296;6.600;2023-03-16T03:38:46;101858.91;;;3.29;74.06
51986;BME280;38002;53.296;6.600;2023-03-16T03:43:48;101850.69;;;3.32;73.56
51986;BME280;38002;53.296;6.600;2023-03-16T03:48:49;101851.44;;;3.34;73.24
51986;BME280;38002;53.296;6.600;2023-03-16T03:53:50;101847.69;;;3.37;73.41
51986;BME280;38002;53.296;6.600;2023-03-16T03:58:50;101838.59;;;3.39;73.77
51986;BME280;38002;53.296;6.600;2023-03-16T04:03:50;101829.59;;;3.40;73.01
51986;BME280;38002;53.296;6.600;2023-03-16T04:08:50;101836.59;;;3.43;72.94
51986;BME280;38002;53.296;6.600;2023-03-16T04:13:53;101840.16;;;3.43;72.86
51986;BME280;38002;53.296;6.600;2023-03-16T04:18:53;101843.59;;;3.45;72.70
51986;BME280;38002;53.296;6.600;2023-03-16T04:23:53;101835.44;;;3.47;72.82
51986;BME280;38002;53.296;6.600;2023-03-16T04:28:54;101822.00;;;3.47;72.78
51986;BME280;38002;53.296;6.600;2023-03-16T04:33:54;101817.41;;;3.49;73.18
51986;BME280;38002;53.296;6.600;2023-03-16T04:38:54;101805.69;;;3.50;72.25
51986;BME280;38002;53.296;6.600;2023-03-16T04:43:55;101794.75;;;3.53;73.24
51986;BME280;38002;53.296;6.600;2023-03-16T04:48:56;101795.63;;;3.53;72.57
51986;BME280;38002;53.296;6.600;2023-03-16T04:53:57;101789.25;;;3.54;73.04
51986;BME280;38002;53.296;6.600;2023-03-16T04:58:57;101779.38;;;3.55;73.44
51986;BME280;38002;53.296;6.600;2023-03-16T05:03:58;101783.88;;;3.54;73.06
51986;BME280;38002;53.296;6.600;2023-03-16T05:08:58;101782.06;;;3.55;73.30
51986;BME280;38002;53.296;6.600;2023-03-16T05:13:59;101776.59;;;3.56;72.49
51986;BME280;38002;53.296;6.600;2023-03-16T05:19:01;101776.41;;;3.59;72.64
51986;BME280;38002;53.296;6.600;2023-03-16T05:24:01;101767.31;;;3.62;73.49
51986;BME280;38002;53.296;6.600;2023-03-16T05:29:01;101776.19;;;3.62;72.25
51986;BME280;38002;53.296;6.600;2023-03-16T05:34:02;101768.06;;;3.64;73.17
51986;BME280;38002;53.296;6.600;2023-03-16T05:39:02;101772.47;;;3.65;73.14
51986;BME280;38002;53.296;6.600;2023-03-16T05:44:02;101769.72;;;3.67;73.25
51986;BME280;38002;53.296;6.600;2023-03-16T05:49:03;101767.00;;;3.67;73.03
51986;BME280;38002;53.296;6.600;2023-03-16T05:54:03;101777.78;;;3.67;73.85
51986;BME280;38002;53.296;6.600;2023-03-16T05:59:04;101768.25;;;3.61;74.21
51986;BME280;38002;53.296;6.600;2023-03-16T06:04:04;101777.66;;;3.68;74.06
51986;BME280;38002;53.296;6.600;2023-03-16T06:09:04;101782.09;;;3.69;74.84
51986;BME280;38002;53.296;6.600;2023-03-16T06:14:04;101772.19;;;3.70;75.47
51986;BME280;38002;53.296;6.600;2023-03-16T06:19:05;101775.75;;;3.70;74.79
51986;BME280;38002;53.296;6.600;2023-03-16T06:24:05;101772.94;;;3.72;74.64
51986;BME280;38002;53.296;6.600;2023-03-16T06:29:08;101775.47;;;3.75;75.31
51986;BME280;38002;53.296;6.600;2023-03-16T06:34:08;101756.53;;;3.76;76.10
51986;BME280;38002;53.296;6.600;2023-03-16T06:39:08;101749.31;;;3.77;75.63
51986;BME280;38002;53.296;6.600;2023-03-16T06:44:09;101739.44;;;3.77;75.87
51986;BME280;38002;53.296;6.600;2023-03-16T06:49:10;101746.44;;;3.80;76.40
51986;BME280;38002;53.296;6.600;2023-03-16T06:54:10;101741.91;;;3.80;76.59
51986;BME280;38002;53.296;6.600;2023-03-16T06:59:11;101749.81;;;3.83;76.68
51986;BME280;38002;53.296;6.600;2023-03-16T07:04:11;101748.53;;;3.89;76.34
51986;BME280;38002;53.296;6.600;2023-03-16T07:09:11;101742.84;;;3.93;76.06
51986;BME280;38002;53.296;6.600;2023-03-16T07:14:12;101742.47;;;3.99;76.18
51986;BME280;38002;53.296;6.600;2023-03-16T07:19:12;101748.31;;;4.06;75.61
51986;BME280;38002;53.296;6.600;2023-03-16T07:24:13;101749.84;;;4.10;76.01
51986;BME280;38002;53.296;6.600;2023-03-16T07:29:13;101740.53;;;4.16;75.39
51986;BME280;38002;53.296;6.600;2023-03-16T07:34:14;101748.22;;;4.22;75.61
51986;BME280;38002;53.296;6.600;2023-03-16T07:39:15;101759.34;;;4.30;74.83
51986;BME280;38002;53.296;6.600;2023-03-16T07:44:16;101761.53;;;4.37;75.67
51986;BME280;38002;53.296;6.600;2023-03-16T07:49:17;101745.72;;;4.45;75.04
51986;BME280;38002;53.296;6.600;2023-03-16T07:54:17;101748.03;;;4.51;75.91
51986;BME280;38002;53.296;6.600;2023-03-16T07:59:17;101749.47;;;4.57;75.57
51986;BME280;38002;53.296;6.600;2023-03-16T08:04:19;101755.19;;;4.65;75.79
51986;BME280;38002;53.296;6.600;2023-03-16T08:09:21;101725.31;;;4.55;77.29
51986;BME280;38002;53.296;6.600;2023-03-16T08:14:21;101748.97;;;4.77;76.78
51986;BME280;38002;53.296;6.600;2023-03-16T08:19:22;101751.16;;;4.85;75.89
51986;BME280;38002;53.296;6.600;2023-03-16T08:24:24;101731.75;;;4.92;76.79
51986;BME280;38002;53.296;6.600;2023-03-16T08:29:24;101730.56;;;4.96;77.62
51986;BME280;38002;53.296;6.600;2023-03-16T08:34:25;101732.09;;;5.00;77.64
51986;BME280;38002;53.296;6.600;2023-03-16T08:39:25;101730.69;;;4.95;78.59
51986;BME280;38002;53.296;6.600;2023-03-16T08:44:26;101729.06;;;4.92;79.78
51986;BME280;38002;53.296;6.600;2023-03-16T08:49:28;101744.78;;;4.86;80.77
51986;BME280;38002;53.296;6.600;2023-03-16T08:54:28;101741.44;;;4.82;81.77
51986;BME280;38002;53.296;6.600;2023-03-16T08:59:29;101748.66;;;4.82;81.59
51986;BME280;38002;53.296;6.600;2023-03-16T09:04:29;101754.06;;;4.82;82.29
51986;BME280;38002;53.296;6.600;2023-03-16T09:09:30;101753.94;;;4.83;82.58
51986;BME280;38002;53.296;6.600;2023-03-16T09:14:30;101751.06;;;4.86;83.30
51986;BME280;38002;53.296;6.600;2023-03-16T09:19:31;101744.56;;;4.89;82.70
51986;BME280;38002;53.296;6.600;2023-03-16T09:24:32;101740.06;;;4.89;84.22
51986;BME280;38002;53.296;6.600;2023-03-16T09:29:32;101737.28;;;4.91;83.71
51986;BME280;38002;53.296;6.600;2023-03-16T09:34:33;101734.25;;;4.95;84.72
51986;BME280;38002;53.296;6.600;2023-03-16T09:39:33;101730.69;;;4.95;85.57
51986;BME280;38002;53.296;6.600;2023-03-16T09:44:39;101723.56;;;4.94;86.42
51986;BME280;38002;53.296;6.600;2023-03-16T09:49:43;101708.69;;;5.01;86.25
51986;BME280;38002;53.296;6.600;2023-03-16T09:54:50;101717.78;;;5.13;86.66
51986;BME280;38002;53.296;6.600;2023-03-16T09:59:59;101719.41;;;5.28;85.92
51986;BME280;38002;53.296;6.600;2023-03-16T10:05:09;101705.19;;;5.38;86.23
51986;BME280;38002;53.296;6.600;2023-03-16T10:10:16;101717.03;;;5.48;86.76
51986;BME280;38002;53.296;6.600;2023-03-16T10:15:23;101694.16;;;5.54;86.68
51986;BME280;38002;53.296;6.600;2023-03-16T10:20:26;101697.63;;;5.56;86.34
51986;BME280;38002;53.296;6.600;2023-03-16T10:25:31;101702.03;;;5.57;88.00
51986;BME280;38002;53.296;6.600;2023-03-16T10:30:34;101691.22;;;5.57;86.70
51986;BME280;38002;53.296;6.600;2023-03-16T10:35:40;101681.84;;;5.63;86.52
51986;BME280;38002;53.296;6.600;2023-03-16T10:40:43;101671.81;;;5.65;87.35
51986;BME280;38002;53.296;6.600;2023-03-16T10:45:44;101666.53;;;5.63;87.00
51986;BME280;38002;53.296;6.600;2023-03-16T10:50:53;101646.13;;;5.59;87.00
51986;BME280;38002;53.296;6.600;2023-03-16T10:55:58;101640.66;;;5.61;86.74
51986;BME280;38002;53.296;6.600;2023-03-16T11:00:59;101656.69;;;5.62;87.87
51986;BME280;38002;53.296;6.600;2023-03-16T11:06:03;101660.50;;;5.60;88.05
51986;BME280;38002;53.296;6.600;2023-03-16T11:11:12;101644.31;;;5.60;87.85
51986;BME280;38002;53.296;6.600;2023-03-16T11:21:18;101624.31;;;5.62;87.01
51986;BME280;38002;53.296;6.600;2023-03-16T11:26:23;101619.91;;;5.61;86.53
51986;BME280;38002;53.296;6.600;2023-03-16T11:41:55;101615.50;;;5.97;87.45
51986;BME280;38002;53.296;6.600;2023-03-16T12:02:27;101598.97;;;6.25;84.89
51986;BME280;38002;53.296;6.600;2023-03-16T12:12:56;101605.72;;;6.30;83.34
51986;BME280;38002;53.296;6.600;2023-03-16T12:18:03;101600.38;;;6.42;84.03
51986;BME280;38002;53.296;6.600;2023-03-16T12:23:12;101581.91;;;6.59;83.57
51986;BME280;38002;53.296;6.600;2023-03-16T12:28:33;101568.03;;;6.75;83.29
51986;BME280;38002;53.296;6.600;2023-03-16T12:38:58;101543.00;;;7.17;80.94
51986;BME280;38002;53.296;6.600;2023-03-16T12:49:07;101529.69;;;7.48;80.35
51986;BME280;38002;53.296;6.600;2023-03-16T12:54:21;101511.72;;;7.58;80.02
51986;BME280;38002;53.296;6.600;2023-03-16T12:59:23;101519.28;;;7.64;79.02
51986;BME280;38002;53.296;6.600;2023-03-16T13:04:33;101513.28;;;7.71;78.25
51986;BME280;38002;53.296;6.600;2023-03-16T13:09:41;101518.16;;;7.78;77.73
51986;BME280;38002;53.296;6.600;2023-03-16T13:14:43;101498.34;;;7.77;77.16
51986;BME280;38002;53.296;6.600;2023-03-16T13:19:44;101506.72;;;7.74;78.34
51986;BME280;38002;53.296;6.600;2023-03-16T13:24:54;101507.47;;;7.76;75.99
51986;BME280;38002;53.296;6.600;2023-03-16T13:29:59;101493.66;;;7.79;77.41
51986;BME280;38002;53.296;6.600;2023-03-16T13:35:01;101484.31;;;7.83;76.05
51986;BME280;38002;53.296;6.600;2023-03-16T13:40:15;101473.56;;;7.93;76.90
51986;BME280;38002;53.296;6.600;2023-03-16T13:45:18;101450.97;;;8.03;76.92
51986;BME280;38002;53.296;6.600;2023-03-16T13:50:19;101453.25;;;8.19;76.33
51986;BME280;38002;53.296;6.600;2023-03-16T13:55:20;101449.09;;;8.36;75.38
51986;BME280;38002;53.296;6.600;2023-03-16T14:00:23;101431.88;;;8.46;72.46
51986;BME280;38002;53.296;6.600;2023-03-16T14:05:26;101454.03;;;8.51;71.11
51986;BME280;38002;53.296;6.600;2023-03-16T14:10:31;101447.09;;;8.58;71.84
51986;BME280;38002;53.296;6.600;2023-03-16T14:15:34;101427.84;;;8.61;73.45
51986;BME280;38002;53.296;6.600;2023-03-16T14:20:35;101431.22;;;8.54;72.00
51986;BME280;38002;53.296;6.600;2023-03-16T14:25:35;101424.09;;;8.53;73.04
51986;BME280;38002;53.296;6.600;2023-03-16T14:30:35;101402.69;;;8.50;71.14
51986;BME280;38002;53.296;6.600;2023-03-16T14:35:40;101395.53;;;8.49;73.64
51986;BME280;38002;53.296;6.600;2023-03-16T14:40:41;101380.25;;;8.48;71.68
51986;BME280;38002;53.296;6.600;2023-03-16T14:45:51;101383.56;;;8.51;71.61
51986;BME280;38002;53.296;6.600;2023-03-16T14:50:53;101398.69;;;8.54;71.46
51986;BME280;38002;53.296;6.600;2023-03-16T14:55:57;101373.75;;;8.60;71.63
51986;BME280;38002;53.296;6.600;2023-03-16T15:00:57;101373.66;;;8.71;72.11
51986;BME280;38002;53.296;6.600;2023-03-16T15:05:58;101370.81;;;8.82;71.11
51986;BME280;38002;53.296;6.600;2023-03-16T15:11:01;101376.41;;;8.90;70.95
51986;BME280;38002;53.296;6.600;2023-03-16T15:16:04;101360.28;;;8.98;70.31
51986;BME280;38002;53.296;6.600;2023-03-16T15:21:08;101334.00;;;8.89;68.19
51986;BME280;38002;53.296;6.600;2023-03-16T15:26:12;101354.31;;;9.04;69.82
51986;BME280;38002;53.296;6.600;2023-03-16T15:31:13;101350.19;;;9.00;68.71
51986;BME280;38002;53.296;6.600;2023-03-16T15:36:14;101341.59;;;8.95;68.13
51986;BME280;38002;53.296;6.600;2023-03-16T15:41:16;101340.03;;;8.93;68.81
51986;BME280;38002;53.296;6.600;2023-03-16T15:46:16;101331.75;;;8.94;69.75
51986;BME280;38002;53.296;6.600;2023-03-16T15:56:17;101332.88;;;8.92;67.65
51986;BME280;38002;53.296;6.600;2023-03-16T16:01:21;101328.47;;;8.91;69.19
51986;BME280;38002;53.296;6.600;2023-03-16T16:06:23;101319.75;;;8.87;69.59
51986;BME280;38002;53.296;6.600;2023-03-16T16:11:24;101318.03;;;8.86;69.39
51986;BME280;38002;53.296;6.600;2023-03-16T16:16:26;101315.44;;;8.85;70.03
51986;BME280;38002;53.296;6.600;2023-03-16T16:21:28;101312.59;;;8.86;70.54
51986;BME280;38002;53.296;6.600;2023-03-16T16:26:39;101282.66;;;8.88;69.35
51986;BME280;38002;53.296;6.600;2023-03-16T16:31:41;101277.34;;;8.86;68.42
51986;BME280;38002;53.296;6.600;2023-03-16T16:36:41;101278.09;;;8.88;69.45
51986;BME280;38002;53.296;6.600;2023-03-16T16:41:42;101272.22;;;8.83;67.57
51986;BME280;38002;53.296;6.600;2023-03-16T16:46:43;101279.19;;;8.76;68.02
51986;BME280;38002;53.296;6.600;2023-03-16T16:51:43;101276.19;;;8.70;68.83
51986;BME280;38002;53.296;6.600;2023-03-16T16:56:44;101268.75;;;8.62;69.49
51986;BME280;38002;53.296;6.600;2023-03-16T17:01:45;101264.88;;;8.55;67.93
51986;BME280;38002;53.296;6.600;2023-03-16T17:06:46;101266.31;;;8.49;68.12
51986;BME280;38002;53.296;6.600;2023-03-16T17:11:47;101267.59;;;8.45;69.35
51986;BME280;38002;53.296;6.600;2023-03-16T17:16:47;101265.69;;;8.36;68.89
51986;BME280;38002;53.296;6.600;2023-03-16T17:21:49;101269.94;;;8.29;69.82
51986;BME280;38002;53.296;6.600;2023-03-16T17:26:57;101273.59;;;8.18;67.32
51986;BME280;38002;53.296;6.600;2023-03-16T17:31:59;101258.16;;;8.09;68.01
51986;BME280;38002;53.296;6.600;2023-03-16T17:37:01;101275.22;;;8.00;69.89
51986;BME280;38002;53.296;6.600;2023-03-16T17:42:05;101277.16;;;7.89;68.09
51986;BME280;38002;53.296;6.600;2023-03-16T17:47:23;101279.06;;;7.77;68.93
51986;BME280;38002;53.296;6.600;2023-03-16T17:52:24;101292.97;;;7.63;68.89
51986;BME280;38002;53.296;6.600;2023-03-16T17:57:30;101282.19;;;7.52;69.15
51986;BME280;38002;53.296;6.600;2023-03-16T18:02:34;101283.84;;;7.43;69.73
51986;BME280;38002;53.296;6.600;2023-03-16T18:07:38;101277.66;;;7.32;70.03
51986;BME280;38002;53.296;6.600;2023-03-16T18:12:38;101275.84;;;7.21;70.25
51986;BME280;38002;53.296;6.600;2023-03-16T18:17:39;101273.66;;;7.15;71.11
51986;BME280;38002;53.296;6.600;2023-03-16T18:22:39;101273.09;;;7.11;70.33
51986;BME280;38002;53.296;6.600;2023-03-16T18:27:41;101264.34;;;7.08;71.64
51986;BME280;38002;53.296;6.600;2023-03-16T18:32:42;101247.06;;;6.99;70.83
51986;BME280;38002;53.296;6.600;2023-03-16T18:37:42;101247.69;;;7.03;71.57
51986;BME280;38002;53.296;6.600;2023-03-16T18:42:43;101242.38;;;7.01;71.50
51986;BME280;38002;53.296;6.600;2023-03-16T18:47:46;101247.91;;;7.00;71.61
51986;BME280;38002;53.296;6.600;2023-03-16T18:52:47;101228.41;;;6.96;71.64
51986;BME280;38002;53.296;6.600;2023-03-16T18:57:48;101233.81;;;6.96;72.35
51986;BME280;38002;53.296;6.600;2023-03-16T19:03:00;101225.81;;;6.95;72.47
51986;BME280;38002;53.296;6.600;2023-03-16T19:08:02;101223.09;;;6.95;72.05
51986;BME280;38002;53.296;6.600;2023-03-16T19:13:08;101216.00;;;6.94;72.32
51986;BME280;38002;53.296;6.600;2023-03-16T19:18:12;101214.28;;;6.93;72.58
51986;BME280;38002;53.296;6.600;2023-03-16T19:28:21;101202.13;;;6.87;72.06
51986;BME280;38002;53.296;6.600;2023-03-16T19:33:25;101194.19;;;6.86;72.46
51986;BME280;38002;53.296;6.600;2023-03-16T19:38:26;101193.31;;;6.85;72.10
51986;BME280;38002;53.296;6.600;2023-03-16T19:43:26;101192.56;;;6.83;72.96
51986;BME280;38002;53.296;6.600;2023-03-16T19:48:29;101183.59;;;6.82;72.65
51986;BME280;38002;53.296;6.600;2023-03-16T19:53:30;101165.72;;;6.81;73.27
51986;BME280;38002;53.296;6.600;2023-03-16T19:58:32;101169.97;;;6.84;72.45
51986;BME280;38002;53.296;6.600;2023-03-16T20:03:33;101169.69;;;6.87;71.94
51986;BME280;38002;53.296;6.600;2023-03-16T20:08:35;101172.88;;;6.92;71.49
51986;BME280;38002;53.296;6.600;2023-03-16T20:13:35;101168.91;;;6.96;72.33
51986;BME280;38002;53.296;6.600;2023-03-16T20:18:36;101167.94;;;6.97;71.68
51986;BME280;38002;53.296;6.600;2023-03-16T20:23:36;101160.69;;;6.98;72.26
51986;BME280;38002;53.296;6.600;2023-03-16T20:28:38;101166.22;;;6.96;72.01
51986;BME280;38002;53.296;6.600;2023-03-16T20:33:38;101150.28;;;6.93;72.37
51986;BME280;38002;53.296;6.600;2023-03-16T20:39:15;101128.19;;;6.88;72.23
51986;BME280;38002;53.296;6.600;2023-03-16T20:44:20;101125.59;;;6.87;72.13
51986;BME280;38002;53.296;6.600;2023-03-16T20:54:24;101128.09;;;6.78;72.65
51986;BME280;38002;53.296;6.600;2023-03-16T20:59:25;101130.81;;;6.78;72.98
51986;BME280;38002;53.296;6.600;2023-03-16T21:04:26;101120.16;;;6.77;73.15
51986;BME280;38002;53.296;6.600;2023-03-16T21:09:26;101119.13;;;6.78;73.25
51986;BME280;38002;53.296;6.600;2023-03-16T21:14:30;101121.72;;;6.79;73.17
51986;BME280;38002;53.296;6.600;2023-03-16T21:19:30;101112.75;;;6.79;73.17
51986;BME280;38002;53.296;6.600;2023-03-16T21:24:31;101103.94;;;6.77;73.63
51986;BME280;38002;53.296;6.600;2023-03-16T21:29:32;101116.59;;;6.76;73.93
51986;BME280;38002;53.296;6.600;2023-03-16T21:34:34;101118.56;;;6.74;73.77
51986;BME280;38002;53.296;6.600;2023-03-16T21:39:35;101116.00;;;6.73;74.05
51986;BME280;38002;53.296;6.600;2023-03-16T21:44:35;101104.91;;;6.76;74.23
51986;BME280;38002;53.296;6.600;2023-03-16T21:49:36;101106.25;;;6.81;73.59
51986;BME280;38002;53.296;6.600;2023-03-16T21:54:37;101092.06;;;6.89;73.75
51986;BME280;38002;53.296;6.600;2023-03-16T21:59:37;101092.94;;;6.99;73.84
51986;BME280;38002;53.296;6.600;2023-03-16T22:04:38;101094.16;;;7.06;73.27
51986;BME280;38002;53.296;6.600;2023-03-16T22:09:38;101094.72;;;7.10;73.07
51986;BME280;38002;53.296;6.600;2023-03-16T22:14:39;101082.78;;;7.12;73.83
51986;BME280;38002;53.296;6.600;2023-03-16T22:19:39;101073.41;;;7.16;73.95
51986;BME280;38002;53.296;6.600;2023-03-16T22:24:40;101082.25;;;7.18;73.43
51986;BME280;38002;53.296;6.600;2023-03-16T22:29:41;101079.44;;;7.20;73.12
51986;BME280;38002;53.296;6.600;2023-03-16T22:39:47;101076.56;;;7.21;72.76
51986;BME280;38002;53.296;6.600;2023-03-16T22:44:48;101074.59;;;7.23;72.46
51986;BME280;38002;53.296;6.600;2023-03-16T22:49:49;101067.81;;;7.29;72.64
51986;BME280;38002;53.296;6.600;2023-03-16T22:54:49;101066.94;;;7.28;73.27
51986;BME280;38002;53.296;6.600;2023-03-16T22:59:50;101068.31;;;7.23;72.49
51986;BME280;38002;53.296;6.600;2023-03-16T23:04:51;101057.50;;;7.23;72.49
51986;BME280;38002;53.296;6.600;2023-03-16T23:09:52;101058.91;;;7.17;72.92
51986;BME280;38002;53.296;6.600;2023-03-16T23:14:52;101060.16;;;7.13;72.76
51986;BME280;38002;53.296;6.600;2023-03-16T23:19:52;101044.94;;;7.12;73.41
51986;BME280;38002;53.296;6.600;2023-03-16T23:24:53;101043.22;;;7.11;72.86
51986;BME280;38002;53.296;6.600;2023-03-16T23:29:53;101038.69;;;7.12;73.24
51986;BME280;38002;53.296;6.600;2023-03-16T23:34:54;101032.25;;;7.13;72.84
51986;BME280;38002;53.296;6.600;2023-03-16T23:39:54;101035.81;;;7.13;73.30
51986;BME280;38002;53.296;6.600;2023-03-16T23:44:55;101044.94;;;7.12;72.82
51986;BME280;38002;53.296;6.600;2023-03-16T23:49:55;101054.06;;;7.11;73.08
51986;BME280;38002;53.296;6.600;2023-03-16T23:54:57;101032.25;;;7.13;73.03
51986;BME280;38002;53.296;6.600;2023-03-16T23:59:58;101045.78;;;7.13;72.72
